Time;durP1;ratioP1;P1;durP2;ratioP2;P2;SDS_P1;SDS_P2;PMS_P1;PMS_P2;Temp;Humidity;BMP_temperature;BMP_pressure;BME280_temperature;BME280_humidity;BME280_pressure;Samples;Min_cycle;Max_cycle;Signal;HPM_P1;HPM_P2
2022/09/24 00:01:47;;;;;;;16.75;13.27;;;;;;;14.51;100.00;101188.72;5073948;28;20444;-51
2022/09/24 00:04:15;;;;;;;18.20;12.90;;;;;;;14.48;100.00;101193.69;5073948;28;20093;-49
2022/09/24 00:06:45;;;;;;;18.80;13.93;;;;;;;14.48;100.00;101188.19;5062220;28;20463;-49
2022/09/24 00:09:15;;;;;;;18.75;13.27;;;;;;;14.47;100.00;101192.03;5058139;28;20036;-49
2022/09/24 00:11:44;;;;;;;15.20;11.65;;;;;;;14.45;100.00;101183.25;5059370;28;20507;-51
2022/09/24 00:14:12;;;;;;;15.23;10.98;;;;;;;14.45;100.00;101177.78;5067429;28;20053;-50
2022/09/24 00:16:41;;;;;;;15.23;11.32;;;;;;;14.44;100.00;101178.91;5064178;28;20086;-52
2022/09/24 00:19:09;;;;;;;14.65;11.93;;;;;;;14.43;100.00;101174.53;5072052;28;20041;-54
2022/09/24 00:21:38;;;;;;;15.48;12.32;;;;;;;14.43;100.00;101184.66;5073785;28;20040;-49
2022/09/24 00:26:48;;;;;;;15.40;12.35;;;;;;;14.42;100.00;101178.34;5061716;28;20070;-50
2022/09/24 00:27:04;;;;;;;17.55;12.70;;;;;;;14.41;100.00;101176.72;5069575;28;20045;-50
2022/09/24 00:29:33;;;;;;;18.48;13.82;;;;;;;14.40;100.00;101180.56;5041979;28;20044;-53
2022/09/24 00:32:02;;;;;;;19.05;13.85;;;;;;;14.40;100.00;101177.81;5048327;28;20047;-55
2022/09/24 00:34:30;;;;;;;18.45;13.93;;;;;;;14.40;100.00;101174.25;5071019;28;20395;-52
2022/09/24 00:36:58;;;;;;;17.95;13.48;;;;;;;14.39;100.00;101173.44;5070819;28;20097;-54
2022/09/24 00:39:25;;;;;;;16.77;12.77;;;;;;;14.39;100.00;101169.91;5069002;28;20049;-54
2022/09/24 00:41:53;;;;;;;17.25;12.52;;;;;;;14.38;100.00;101166.34;5062787;28;20456;-51
2022/09/24 00:44:39;;;;;;;15.07;11.52;;;;;;;14.38;100.00;101171.81;5071794;28;20041;-51
2022/09/24 00:47:24;;;;;;;18.63;11.93;;;;;;;14.35;100.00;101166.88;5062768;28;20041;-52
2022/09/24 00:50:16;;;;;;;15.77;12.65;;;;;;;14.34;100.00;101165.25;5072567;28;20040;-51
2022/09/24 00:52:56;;;;;;;16.23;11.85;;;;;;;14.33;100.00;101163.59;5073418;28;20048;-54
2022/09/24 00:55:24;;;;;;;15.07;10.77;;;;;;;14.33;100.00;101160.88;5068090;28;20052;-51
2022/09/24 00:57:56;;;;;;;15.35;11.07;;;;;;;14.31;100.00;101149.41;5067321;28;20050;-51
2022/09/24 01:00:24;;;;;;;15.60;12.38;;;;;;;14.32;100.00;101155.69;5060648;28;20392;-52
2022/09/24 01:02:57;;;;;;;19.02;12.75;;;;;;;14.31;100.00;101154.03;5071941;28;20049;-50
2022/09/24 01:05:25;;;;;;;15.73;11.80;;;;;;;14.30;100.00;101146.94;5070433;28;20522;-54
2022/09/24 01:07:53;;;;;;;15.18;11.23;;;;;;;14.30;100.00;101141.44;5050805;28;20506;-52
2022/09/24 01:10:49;;;;;;;16.85;12.20;;;;;;;14.30;100.00;101146.94;5060271;28;20044;-50
2022/09/24 01:13:25;;;;;;;15.73;12.13;;;;;;;14.30;100.00;101142.25;5071885;28;20060;-49
2022/09/24 01:16:14;;;;;;;15.20;11.27;;;;;;;14.30;100.00;101131.28;5061389;28;20057;-53
2022/09/24 01:19:04;;;;;;;15.68;11.68;;;;;;;14.29;100.00;101135.16;5071720;28;20720;-53
2022/09/24 01:21:37;;;;;;;15.27;11.82;;;;;;;14.28;100.00;101134.31;5076213;28;20045;-52
2022/09/24 01:24:32;;;;;;;15.90;11.82;;;;;;;14.28;100.00;101128.00;5073336;28;20094;-53
2022/09/24 01:27:12;;;;;;;16.85;12.23;;;;;;;14.28;100.00;101128.00;5072728;28;20049;-54
2022/09/24 01:30:06;;;;;;;17.38;11.88;;;;;;;14.27;100.00;101118.16;5077601;28;20184;-54
2022/09/24 01:32:55;;;;;;;15.35;11.27;;;;;;;14.27;100.00;101112.69;5078342;28;20049;-55
2022/09/24 01:35:30;;;;;;;20.73;12.00;;;;;;;14.27;100.00;101115.44;5072846;28;20040;-54
2022/09/24 01:38:01;;;;;;;14.70;11.65;;;;;;;14.28;100.00;101111.56;5079894;28;20041;-52
2022/09/24 01:40:30;;;;;;;16.92;11.93;;;;;;;14.26;100.00;101114.63;5041198;28;20409;-54
2022/09/24 01:42:59;;;;;;;17.83;11.88;;;;;;;14.25;100.00;101112.16;5091281;28;20048;-53
2022/09/24 01:45:31;;;;;;;15.80;11.57;;;;;;;14.24;100.00;101102.31;5051538;28;20121;-52
2022/09/24 01:48:00;;;;;;;14.60;10.90;;;;;;;14.26;100.00;101105.56;5072260;28;20044;-53
2022/09/24 01:50:30;;;;;;;15.93;11.57;;;;;;;14.25;100.00;101106.66;5060648;28;20410;-53
2022/09/24 01:53:04;;;;;;;14.27;10.85;;;;;;;14.26;100.00;101097.31;5075960;28;20052;-52
2022/09/24 01:55:43;;;;;;;15.52;10.93;;;;;;;14.26;100.00;101102.81;5068872;28;20045;-51
2022/09/24 01:58:18;;;;;;;18.27;12.48;;;;;;;14.24;100.00;101105.03;5075063;28;20032;-55
2022/09/24 02:00:49;;;;;;;14.48;10.85;;;;;;;14.23;100.00;101100.66;5069101;28;20029;-52
2022/09/24 02:03:22;;;;;;;16.65;11.38;;;;;;;14.23;100.00;101093.25;5065292;28;20058;-52
2022/09/24 02:05:58;;;;;;;16.23;11.10;;;;;;;14.23;100.00;101092.44;5066165;28;20037;-56
2022/09/24 02:08:33;;;;;;;16.42;11.75;;;;;;;14.22;100.00;101101.75;5079460;28;20048;-50
2022/09/24 02:11:11;;;;;;;14.32;10.45;;;;;;;14.22;100.00;101093.53;5075163;28;20048;-51
2022/09/24 02:14:03;;;;;;;14.80;10.32;;;;;;;14.22;100.00;101086.13;5052332;28;20051;-55
2022/09/24 02:16:49;;;;;;;17.15;10.68;;;;;;;14.22;100.00;101086.13;5079209;28;20402;-52
2022/09/24 02:19:24;;;;;;;16.33;11.45;;;;;;;14.22;100.00;101091.63;5078351;28;20064;-51
2022/09/24 02:21:52;;;;;;;15.63;10.77;;;;;;;14.23;100.00;101086.94;5064991;28;20086;-52
2022/09/24 02:24:23;;;;;;;15.30;11.65;;;;;;;14.22;100.00;101080.66;5079031;28;20051;-52
2022/09/24 02:26:51;;;;;;;15.00;10.63;;;;;;;14.22;100.00;101082.59;5077806;28;20448;-52
2022/09/24 02:29:19;;;;;;;14.20;10.90;;;;;;;14.21;100.00;101079.00;5078920;28;20117;-49
2022/09/24 02:31:49;;;;;;;12.93;10.18;;;;;;;14.21;100.00;101078.19;5066683;28;20094;-52
2022/09/24 02:34:27;;;;;;;13.57;10.45;;;;;;;14.22;100.00;101085.31;5068425;28;20044;-51
2022/09/24 02:36:59;;;;;;;13.75;10.90;;;;;;;14.21;100.00;101078.19;5078029;28;20037;-50
2022/09/24 02:39:27;;;;;;;14.00;10.88;;;;;;;14.21;100.00;101083.66;5073872;28;20152;-51
2022/09/24 02:41:55;;;;;;;15.10;10.80;;;;;;;14.21;100.00;101080.94;5048215;28;20105;-51
2022/09/24 02:44:23;;;;;;;14.75;11.30;;;;;;;14.20;100.00;101076.56;5068526;28;20037;-54
2022/09/24 02:46:51;;;;;;;15.25;11.18;;;;;;;14.19;100.00;101075.75;5075985;28;20559;-54
2022/09/24 02:49:18;;;;;;;16.95;11.07;;;;;;;14.18;100.00;101074.09;5071118;28;20047;-52
2022/09/24 02:51:46;;;;;;;14.55;11.30;;;;;;;14.16;100.00;101064.53;5072871;28;20037;-51
2022/09/24 02:54:14;;;;;;;15.63;11.32;;;;;;;14.14;100.00;101061.25;5072602;28;20109;-52
2022/09/24 02:56:42;;;;;;;15.00;11.13;;;;;;;14.13;100.00;101068.66;5056550;28;20036;-51
2022/09/24 02:59:11;;;;;;;16.02;11.27;;;;;;;14.11;100.00;101061.84;5065745;28;20093;-53
2022/09/24 03:01:38;;;;;;;17.55;11.55;;;;;;;14.04;100.00;101065.69;5074486;28;20449;-51
2022/09/24 03:04:07;;;;;;;16.58;11.60;;;;;;;14.00;100.00;101067.41;5072980;28;20041;-53
2022/09/24 03:06:35;;;;;;;17.05;12.23;;;;;;;13.99;100.00;101062.19;5074104;28;20048;-54
2022/09/24 03:09:03;;;;;;;16.00;11.98;;;;;;;13.99;100.00;101063.00;5065337;28;20103;-51
2022/09/24 03:11:32;;;;;;;16.63;11.98;;;;;;;14.01;100.00;101058.06;5063734;28;20036;-55
2022/09/24 03:13:59;;;;;;;16.98;12.10;;;;;;;14.02;100.00;101062.44;5060731;28;20422;-53
2022/09/24 03:16:27;;;;;;;14.95;11.82;;;;;;;14.02;100.00;101054.22;5059708;28;20041;-53
2022/09/24 03:18:55;;;;;;;14.80;12.23;;;;;;;14.03;100.00;101055.03;5073035;28;20045;-52
2022/09/24 03:21:23;;;;;;;17.17;12.40;;;;;;;14.03;100.00;101055.03;5068667;28;20041;-51
2022/09/24 03:23:50;;;;;;;17.98;12.00;;;;;;;14.02;100.00;101054.22;5066364;28;20395;-53
2022/09/24 03:26:18;;;;;;;15.98;12.23;;;;;;;14.03;100.00;101057.78;5061889;28;20037;-57
2022/09/24 03:28:46;;;;;;;19.77;13.40;;;;;;;14.02;100.00;101056.13;5069288;28;20033;-53
2022/09/24 03:31:13;;;;;;;17.20;12.82;;;;;;;14.01;100.00;101046.28;5074685;28;20384;-53
2022/09/24 03:33:44;;;;;;;17.08;12.80;;;;;;;13.98;100.00;101050.41;5068732;28;20399;-54
2022/09/24 03:36:15;;;;;;;18.05;13.27;;;;;;;13.97;100.00;101047.97;5060996;28;20045;-52
2022/09/24 03:38:44;;;;;;;21.42;13.55;;;;;;;13.96;100.00;101047.16;5074595;28;20507;-54
2022/09/24 03:41:12;;;;;;;18.45;13.13;;;;;;;13.95;100.00;101048.25;5074199;28;20047;-51
2022/09/24 03:43:40;;;;;;;19.30;14.23;;;;;;;13.96;100.00;101044.41;5073730;28;20512;-54
2022/09/24 03:46:09;;;;;;;18.80;13.52;;;;;;;13.96;100.00;101049.88;5057838;28;20063;-51
2022/09/24 03:48:39;;;;;;;18.80;13.25;;;;;;;13.96;100.00;101044.41;5060943;28;20041;-55
2022/09/24 03:51:14;;;;;;;15.50;11.70;;;;;;;13.97;100.00;101045.22;5071774;28;20047;-50
2022/09/24 03:53:42;;;;;;;18.83;12.93;;;;;;;13.97;100.00;101046.03;5060378;28;20106;-50
2022/09/24 03:56:10;;;;;;;19.67;14.18;;;;;;;13.98;100.00;101049.59;5068275;28;20036;-50
2022/09/24 03:58:39;;;;;;;16.42;12.98;;;;;;;13.97;100.00;101040.53;5071856;28;20040;-50
2022/09/24 04:01:08;;;;;;;18.75;14.23;;;;;;;13.97;100.00;101040.53;5073010;28;20041;-50
2022/09/24 04:03:36;;;;;;;19.48;14.43;;;;;;;13.97;100.00;101039.75;5073515;28;20041;-51
2022/09/24 04:06:04;;;;;;;18.20;13.60;;;;;;;13.97;100.00;101031.53;5063848;28;20078;-52
2022/09/24 04:08:32;;;;;;;20.17;14.32;;;;;;;13.96;100.00;101030.72;5067894;28;20048;-50
2022/09/24 04:11:00;;;;;;;18.17;14.07;;;;;;;13.95;100.00;101026.34;5072564;28;20044;-49
2022/09/24 04:13:28;;;;;;;19.75;14.48;;;;;;;13.94;100.00;101024.69;5057894;28;20061;-51
2022/09/24 04:16:00;;;;;;;19.23;14.70;;;;;;;13.95;100.00;101023.59;5058776;28;20051;-54
2022/09/24 04:18:27;;;;;;;21.25;14.63;;;;;;;13.94;100.00;101023.88;5066877;28;20052;-49
2022/09/24 04:20:59;;;;;;;18.50;13.82;;;;;;;13.93;100.00;101025.81;5073524;28;20037;-52
2022/09/24 04:23:30;;;;;;;19.52;14.10;;;;;;;13.92;100.00;101015.94;5073214;28;20040;-52
2022/09/24 04:26:00;;;;;;;17.50;13.27;;;;;;;13.94;100.00;101021.94;5070872;28;20047;-50
2022/09/24 04:28:29;;;;;;;20.35;14.45;;;;;;;13.94;100.00;101019.22;5067900;28;20041;-53
2022/09/24 04:30:57;;;;;;;20.20;14.20;;;;;;;13.94;100.00;101013.72;5070811;28;20070;-52
2022/09/24 04:33:25;;;;;;;22.55;15.10;;;;;;;13.93;100.00;101014.84;5073397;28;20056;-49
2022/09/24 04:35:53;;;;;;;18.50;14.15;;;;;;;13.94;100.00;101008.25;5072778;28;20447;-48
2022/09/24 04:38:20;;;;;;;21.55;14.77;;;;;;;13.94;100.00;101018.41;5035544;28;20041;-55
2022/09/24 04:40:48;;;;;;;17.83;13.00;;;;;;;13.94;100.00;101008.25;5068198;28;20048;-50
2022/09/24 04:43:17;;;;;;;19.40;14.60;;;;;;;13.92;100.00;101010.47;5072451;28;20103;-48
2022/09/24 04:45:46;;;;;;;18.48;14.55;;;;;;;13.93;100.00;101012.13;5073519;28;20048;-52
2022/09/24 04:48:13;;;;;;;17.00;13.30;;;;;;;13.92;100.00;101018.69;5069460;28;20444;-47
2022/09/24 04:50:41;;;;;;;18.13;13.73;;;;;;;13.92;100.00;101015.94;5072689;28;20037;-48
2022/09/24 04:53:13;;;;;;;19.75;13.65;;;;;;;13.93;100.00;101017.59;5073511;28;20048;-49
2022/09/24 04:55:41;;;;;;;22.95;16.50;;;;;;;13.89;100.00;101016.50;5073618;28;20069;-50
2022/09/24 04:58:09;;;;;;;19.90;15.85;;;;;;;13.85;100.00;101009.97;5064920;28;20037;-50
2022/09/24 05:00:37;;;;;;;23.80;16.05;;;;;;;13.83;100.00;101013.00;5073321;28;20047;-51
2022/09/24 05:03:05;;;;;;;22.52;15.30;;;;;;;13.82;100.00;101014.09;5071496;28;20061;-49
2022/09/24 05:05:33;;;;;;;19.13;13.85;;;;;;;13.82;100.00;101011.34;5073013;28;20118;-49
2022/09/24 05:08:02;;;;;;;18.85;14.77;;;;;;;13.84;100.00;101013.81;5068915;28;20040;-48
2022/09/24 05:10:31;;;;;;;18.17;13.45;;;;;;;13.85;100.00;101009.97;5080018;28;20033;-48
2022/09/24 05:13:00;;;;;;;18.42;12.55;;;;;;;13.85;100.00;101015.44;5070650;28;20496;-50
2022/09/24 05:15:28;;;;;;;17.35;11.07;;;;;;;13.85;100.00;101016.28;5053037;28;20045;-48
2022/09/24 05:17:56;;;;;;;15.98;11.00;;;;;;;13.88;100.00;101014.91;5070019;28;20044;-51
2022/09/24 05:20:24;;;;;;;16.88;12.93;;;;;;;13.90;100.00;101018.13;5063603;28;20062;-48
2022/09/24 05:22:52;;;;;;;16.17;11.82;;;;;;;13.90;100.00;101020.88;5067789;28;20054;-49
2022/09/24 05:25:22;;;;;;;15.55;11.88;;;;;;;13.89;100.00;101019.25;5071703;28;20460;-49
2022/09/24 05:27:54;;;;;;;20.00;13.77;;;;;;;13.88;100.00;101017.63;5069890;28;20033;-53
2022/09/24 05:30:24;;;;;;;17.13;13.05;;;;;;;13.87;100.00;101015.97;5052109;28;20067;-53
2022/09/24 05:32:52;;;;;;;20.15;15.10;;;;;;;13.85;100.00;101009.97;5071603;28;20495;-53
2022/09/24 05:35:21;;;;;;;19.92;12.63;;;;;;;13.81;100.00;101017.94;5072934;28;20055;-49
2022/09/24 05:37:52;;;;;;;21.10;13.43;;;;;;;13.79;100.00;101014.66;5058569;28;20052;-55
2022/09/24 05:43:07;;;;;;;18.45;13.32;;;;;;;13.80;100.00;101018.22;5066736;28;20097;-51
2022/09/24 05:45:35;;;;;;;20.13;14.23;;;;;;;13.76;100.00;101015.25;5072250;28;20105;-51
2022/09/24 05:48:02;;;;;;;17.50;13.02;;;;;;;13.73;100.00;101017.72;5070015;28;20498;-51
2022/09/24 05:50:33;;;;;;;17.83;12.82;;;;;;;13.72;100.00;101021.56;5069722;28;20102;-52
2022/09/24 05:53:02;;;;;;;16.98;12.25;;;;;;;13.73;100.00;101023.19;5055282;28;20061;-51
2022/09/24 05:55:30;;;;;;;18.95;12.07;;;;;;;13.74;100.00;101028.41;5056180;28;20036;-51
2022/09/24 05:58:08;;;;;;;16.45;11.65;;;;;;;13.75;100.00;101026.47;5072557;28;20048;-52
2022/09/24 06:00:36;;;;;;;16.95;11.25;;;;;;;13.76;100.00;101028.13;5068900;28;20048;-50
2022/09/24 06:03:06;;;;;;;16.67;11.68;;;;;;;13.76;100.00;101033.59;5063690;28;20044;-49
2022/09/24 06:05:34;;;;;;;16.20;11.00;;;;;;;13.77;100.00;101035.22;5072664;28;20044;-51
2022/09/24 06:08:03;;;;;;;14.88;10.85;;;;;;;13.78;100.00;101036.84;5072669;28;20052;-52
2022/09/24 06:10:31;;;;;;;16.02;11.27;;;;;;;13.77;100.00;101036.03;5070986;28;20032;-50
2022/09/24 06:12:59;;;;;;;14.77;10.30;;;;;;;13.78;100.00;101036.84;5061521;28;20049;-54
2022/09/24 06:15:27;;;;;;;15.13;10.80;;;;;;;13.79;100.00;101038.50;5059765;28;20110;-54
2022/09/24 06:17:55;;;;;;;15.50;11.95;;;;;;;13.78;100.00;101031.38;5077328;28;20045;-58
2022/09/24 06:20:23;;;;;;;16.10;12.32;;;;;;;13.76;100.00;101028.94;5076480;28;20093;-51
2022/09/24 06:22:53;;;;;;;17.20;12.48;;;;;;;13.75;100.00;101037.44;5065504;28;20522;-53
2022/09/24 06:25:21;;;;;;;17.88;12.30;;;;;;;13.72;100.00;101038.00;5072225;28;20058;-51
2022/09/24 06:27:59;;;;;;;15.13;11.88;;;;;;;13.72;100.00;101038.00;5077546;28;20041;-55
2022/09/24 06:30:28;;;;;;;14.52;9.82;;;;;;;13.72;100.00;101038.00;5077284;28;20181;-52
2022/09/24 06:33:01;;;;;;;16.10;10.85;;;;;;;13.71;100.00;101037.19;5073409;28;20101;-52
2022/09/24 06:35:29;;;;;;;13.77;10.30;;;;;;;13.73;100.00;101037.69;5075698;28;20101;-54
2022/09/24 06:37:57;;;;;;;16.45;10.45;;;;;;;13.72;100.00;101038.81;5067436;28;20082;-51
2022/09/24 06:40:25;;;;;;;15.63;10.65;;;;;;;13.69;100.00;101039.41;5069978;28;20452;-54
2022/09/24 06:42:53;;;;;;;14.02;10.02;;;;;;;13.69;100.00;101041.31;5073712;28;20076;-50
2022/09/24 06:45:21;;;;;;;13.95;10.15;;;;;;;13.69;100.00;101044.88;5054817;28;20556;-52
2022/09/24 06:47:56;;;;;;;14.43;9.23;;;;;;;13.70;100.00;101051.97;5068755;28;20048;-50
2022/09/24 06:50:26;;;;;;;15.98;9.95;;;;;;;13.70;100.00;101056.63;5067848;28;20522;-50
2022/09/24 06:52:54;;;;;;;13.27;9.05;;;;;;;13.71;100.00;101055.53;5067597;28;20097;-51
2022/09/24 06:55:22;;;;;;;14.45;10.00;;;;;;;13.71;100.00;101058.25;5064251;28;20044;-52
2022/09/24 06:57:50;;;;;;;15.32;10.15;;;;;;;13.71;100.00;101058.25;5075825;28;20045;-51
2022/09/24 07:00:18;;;;;;;13.52;9.13;;;;;;;13.71;100.00;101059.09;5075202;28;20406;-51
2022/09/24 07:02:51;;;;;;;13.68;9.73;;;;;;;13.71;100.00;101063.75;5069032;28;20029;-51
2022/09/24 07:05:18;;;;;;;14.48;10.60;;;;;;;13.69;100.00;101063.22;5063853;28;20086;-55
2022/09/24 07:07:46;;;;;;;15.95;9.10;;;;;;;13.70;100.00;101062.13;5075497;28;20043;-52
2022/09/24 07:10:15;;;;;;;16.52;9.82;;;;;;;13.69;100.00;101061.31;5069035;28;20518;-52
2022/09/24 07:12:43;;;;;;;14.25;9.45;;;;;;;13.72;100.00;101065.38;5074743;28;20055;-51
2022/09/24 07:15:11;;;;;;;14.88;10.38;;;;;;;13.73;100.00;101072.50;5061901;28;20047;-51
2022/09/24 07:17:39;;;;;;;14.18;10.88;;;;;;;13.73;100.00;101069.75;5074124;28;20044;-54
2022/09/24 07:20:07;;;;;;;17.85;9.52;;;;;;;13.77;100.00;101073.56;5074525;28;20109;-55
2022/09/24 07:22:41;;;;;;;17.92;11.73;;;;;;;13.75;100.00;101075.78;5074092;28;20097;-54
2022/09/24 07:25:11;;;;;;;15.07;9.65;;;;;;;13.75;100.00;101079.31;5073025;28;20045;-54
2022/09/24 07:27:39;;;;;;;16.25;10.35;;;;;;;13.77;100.00;101082.59;5087252;28;20043;-52
2022/09/24 07:30:07;;;;;;;15.55;10.90;;;;;;;13.76;100.00;101080.97;5064826;28;20055;-53
2022/09/24 07:32:35;;;;;;;15.88;11.00;;;;;;;13.75;100.00;101084.00;5056640;28;20040;-57
2022/09/24 07:35:03;;;;;;;15.35;11.68;;;;;;;13.74;100.00;101087.84;5074561;28;20133;-52
2022/09/24 07:37:32;;;;;;;16.15;12.15;;;;;;;13.72;100.00;101077.16;5070442;28;20053;-50
2022/09/24 07:39:59;;;;;;;14.95;11.75;;;;;;;13.72;100.00;101092.78;5060483;28;20502;-51
2022/09/24 07:42:27;;;;;;;18.13;11.63;;;;;;;13.72;100.00;101098.25;5067874;28;20067;-52
2022/09/24 07:44:55;;;;;;;17.60;12.48;;;;;;;13.71;100.00;101099.34;5056856;28;20037;-51
2022/09/24 07:47:23;;;;;;;15.07;12.07;;;;;;;13.68;100.00;101094.44;5062333;28;20098;-52
2022/09/24 07:49:51;;;;;;;19.58;13.75;;;;;;;13.70;100.00;101100.44;5073025;28;20077;-56
2022/09/24 07:52:18;;;;;;;18.58;12.43;;;;;;;13.67;100.00;101093.63;5073289;28;20037;-53
2022/09/24 07:54:46;;;;;;;21.48;13.23;;;;;;;13.66;100.00;101102.91;5074298;28;20048;-51
2022/09/24 07:57:14;;;;;;;18.45;13.20;;;;;;;13.67;100.00;101106.50;5068869;28;20440;-53
2022/09/24 07:59:43;;;;;;;15.18;12.23;;;;;;;13.67;100.00;101106.50;5070207;28;20041;-52
2022/09/24 08:02:16;;;;;;;17.00;12.05;;;;;;;13.68;100.00;101105.38;5062776;28;20456;-53
2022/09/24 08:04:44;;;;;;;17.42;12.82;;;;;;;13.68;100.00;101108.13;5072957;28;20040;-51
2022/09/24 08:07:12;;;;;;;17.20;12.30;;;;;;;13.67;100.00;101109.22;5073119;28;20082;-52
2022/09/24 08:09:40;;;;;;;16.65;12.23;;;;;;;13.67;100.00;101111.97;5060749;28;20380;-52
2022/09/24 08:12:08;;;;;;;16.05;11.35;;;;;;;13.68;100.00;101113.59;5063245;28;20098;-51
2022/09/24 08:14:36;;;;;;;15.70;12.45;;;;;;;13.67;100.00;101107.31;5061153;28;20067;-51
2022/09/24 08:17:04;;;;;;;17.02;12.32;;;;;;;13.65;100.00;101117.72;5070525;28;20510;-55
2022/09/24 08:19:32;;;;;;;15.15;11.07;;;;;;;13.67;100.00;101122.94;5070407;28;20045;-55
2022/09/24 08:21:59;;;;;;;17.65;12.35;;;;;;;13.67;100.00;101123.75;5073520;28;20064;-53
2022/09/24 08:24:27;;;;;;;17.80;13.63;;;;;;;13.69;100.00;101118.81;5073746;28;20070;-52
2022/09/24 08:26:55;;;;;;;20.63;13.07;;;;;;;13.69;100.00;101121.53;5073782;28;20563;-51
2022/09/24 08:29:22;;;;;;;17.90;13.25;;;;;;;13.70;100.00;101123.16;5071074;28;20045;-55
2022/09/24 08:31:50;;;;;;;17.92;12.43;;;;;;;13.69;100.00;101126.22;5069908;28;20040;-52
2022/09/24 08:34:18;;;;;;;17.77;12.80;;;;;;;13.66;100.00;101132.22;5073414;28;20050;-52
2022/09/24 08:36:45;;;;;;;16.05;12.25;;;;;;;13.67;100.00;101128.41;5072257;28;20047;-55
2022/09/24 08:39:14;;;;;;;17.38;11.98;;;;;;;13.66;100.00;101126.75;5071028;28;20564;-51
2022/09/24 08:41:55;;;;;;;17.38;13.30;;;;;;;13.70;100.00;101130.56;5072921;28;20048;-52
2022/09/24 08:48:03;;;;;;;17.40;13.35;;;;;;;13.72;100.00;101136.59;5073256;28;20418;-52
2022/09/24 08:50:33;;;;;;;18.20;13.43;;;;;;;13.72;100.00;101139.31;5070606;28;20166;-49
2022/09/24 08:53:31;;;;;;;17.70;13.43;;;;;;;13.70;100.00;101138.78;5054988;28;20660;-52
2022/09/24 08:56:00;;;;;;;15.65;10.82;;;;;;;13.71;100.00;101140.41;5071969;28;20491;-52
2022/09/24 08:58:30;;;;;;;17.58;12.07;;;;;;;13.70;100.00;101139.59;5073407;28;20052;-55
2022/09/24 09:01:13;;;;;;;19.38;13.45;;;;;;;13.70;100.00;101138.78;5072224;28;20052;-54
2022/09/24 09:03:54;;;;;;;17.05;12.68;;;;;;;13.71;100.00;101140.41;5073335;28;20055;-54
2022/09/24 09:06:34;;;;;;;17.55;13.13;;;;;;;13.70;100.00;101145.06;5071763;28;20075;-55
2022/09/24 09:09:11;;;;;;;14.75;11.57;;;;;;;13.71;100.00;101146.72;5071847;28;20448;-52
2022/09/24 09:11:39;;;;;;;18.88;13.07;;;;;;;13.72;100.00;101144.81;5066068;28;20051;-54
2022/09/24 09:14:17;;;;;;;15.82;12.27;;;;;;;13.73;100.00;101149.16;5063945;28;20064;-52
2022/09/24 09:17:15;;;;;;;19.02;11.75;;;;;;;13.75;100.00;101150.53;5068172;28;20044;-54
2022/09/24 09:19:43;;;;;;;19.65;12.52;;;;;;;13.75;100.00;101149.72;5071897;28;20669;-50
2022/09/24 09:22:16;;;;;;;20.55;13.27;;;;;;;13.75;100.00;101153.25;5073409;28;20037;-51
2022/09/24 09:24:45;;;;;;;16.80;13.48;;;;;;;13.75;100.00;101152.44;5071676;28;20049;-51
2022/09/24 09:27:14;;;;;;;18.35;13.65;;;;;;;13.75;100.00;101157.94;5072647;28;20383;-53
2022/09/24 09:29:58;;;;;;;16.52;12.55;;;;;;;13.74;100.00;101164.50;5067667;28;20049;-51
2022/09/24 09:32:49;;;;;;;18.50;14.05;;;;;;;13.75;100.00;101157.94;5055599;28;20494;-53
2022/09/24 09:35:32;;;;;;;18.77;13.52;;;;;;;13.76;100.00;101159.59;5080241;28;20045;-54
2022/09/24 09:38:29;;;;;;;18.67;15.00;;;;;;;13.77;100.00;101164.75;5063252;28;20044;-54
2022/09/24 09:41:01;;;;;;;20.73;13.40;;;;;;;13.79;100.00;101161.75;5072098;28;20533;-51
2022/09/24 09:43:29;;;;;;;16.80;12.93;;;;;;;13.79;100.00;101153.53;5073265;28;20540;-51
2022/09/24 09:46:00;;;;;;;18.48;12.88;;;;;;;13.78;100.00;101157.34;5072682;28;20051;-52
2022/09/24 09:48:38;;;;;;;14.57;11.60;;;;;;;13.79;100.00;101162.56;4366836;28;10000337;-51
2022/09/24 09:51:08;;;;;;;18.88;12.85;;;;;;;13.79;100.00;101156.28;5072204;28;20052;-55
2022/09/24 09:53:36;;;;;;;18.52;13.18;;;;;;;13.80;100.00;101166.13;5055761;28;20040;-52
2022/09/24 09:56:06;;;;;;;16.75;11.77;;;;;;;13.81;100.00;101163.09;5073515;28;20461;-55
2022/09/24 09:58:36;;;;;;;18.88;13.07;;;;;;;13.82;100.00;101166.66;5067116;28;20109;-52
2022/09/24 10:01:11;;;;;;;16.42;13.02;;;;;;;13.82;100.00;101164.72;5071191;28;20077;-51
2022/09/24 10:03:46;;;;;;;18.50;13.15;;;;;;;13.83;100.00;101168.31;5073491;28;20045;-52
2022/09/24 10:06:26;;;;;;;18.90;11.90;;;;;;;13.84;100.00;101165.28;5072647;28;20113;-51
2022/09/24 10:09:04;;;;;;;14.77;11.05;;;;;;;13.87;100.00;101166.63;5056342;28;20090;-54
2022/09/24 10:11:32;;;;;;;19.08;13.05;;;;;;;13.88;100.00;101168.28;5068551;28;20052;-55
2022/09/24 10:14:04;;;;;;;18.52;13.27;;;;;;;13.88;100.00;101167.44;5066452;28;20064;-52
2022/09/24 10:16:39;;;;;;;17.92;13.32;;;;;;;13.89;100.00;101163.63;5065680;28;20040;-55
2022/09/24 10:19:22;;;;;;;16.98;11.85;;;;;;;13.91;100.00;101169.63;5075511;28;20105;-52
2022/09/24 10:21:50;;;;;;;20.35;13.10;;;;;;;13.91;100.00;101167.72;5086746;28;20422;-54
2022/09/24 10:24:24;;;;;;;19.60;14.85;;;;;;;13.91;100.00;101161.41;5073339;28;20048;-52
2022/09/24 10:26:52;;;;;;;19.52;14.30;;;;;;;13.92;100.00;101158.38;5070460;28;20444;-51
2022/09/24 10:32:26;;;;;;;18.42;12.73;;;;;;;13.94;100.00;101161.66;5072743;28;20055;-53
2022/09/24 10:35:22;;;;;;;18.80;14.63;;;;;;;13.96;100.00;101158.66;5072904;28;20036;-53
2022/09/24 10:38:00;;;;;;;19.52;14.05;;;;;;;13.97;100.00;101161.09;5061229;28;20499;-54
2022/09/24 10:40:30;;;;;;;18.10;13.52;;;;;;;13.99;100.00;101160.81;5069380;28;20090;-51
2022/09/24 10:43:00;;;;;;;22.67;15.80;;;;;;;13.97;100.00;101161.09;5055619;28;20512;-51
2022/09/24 10:45:45;;;;;;;18.45;14.23;;;;;;;13.97;100.00;101165.75;5075160;28;20045;-54
2022/09/24 10:48:58;;;;;;;19.10;14.90;;;;;;;13.98;100.00;101162.75;5067657;28;20059;-53
2022/09/24 10:51:31;;;;;;;19.58;15.55;;;;;;;13.97;100.00;101163.81;5073180;28;20046;-53
2022/09/24 10:54:20;;;;;;;18.15;11.68;;;;;;;13.98;100.00;101162.75;5072802;28;20040;-54
2022/09/24 10:56:50;;;;;;;18.33;13.25;;;;;;;14.01;100.00;101170.38;5070831;28;20070;-53
2022/09/24 10:59:38;;;;;;;20.77;14.73;;;;;;;14.03;100.00;101170.13;5065012;28;20131;-51
2022/09/24 11:02:13;;;;;;;19.80;14.07;;;;;;;14.03;100.00;101170.94;5070119;28;20571;-53
2022/09/24 11:04:50;;;;;;;20.52;12.95;;;;;;;14.03;100.00;101168.19;5071134;28;20044;-53
2022/09/24 11:07:41;;;;;;;18.20;13.75;;;;;;;14.05;100.00;101174.22;5072328;28;20507;-51
2022/09/24 11:10:08;;;;;;;17.13;12.93;;;;;;;14.04;100.00;101167.06;5069081;28;20452;-51
2022/09/24 11:13:10;;;;;;;18.88;13.48;;;;;;;14.05;100.00;101174.22;5068516;28;20041;-51
2022/09/24 11:15:45;;;;;;;18.55;13.73;;;;;;;14.07;100.00;101177.50;5057813;28;20044;-55
2022/09/24 11:18:32;;;;;;;17.98;13.00;;;;;;;14.07;100.00;101177.50;5070953;28;20040;-51
2022/09/24 11:21:09;;;;;;;17.98;13.60;;;;;;;14.07;100.00;101182.16;5061981;28;20066;-52
2022/09/24 11:23:48;;;;;;;13.30;9.02;;;;;;;14.10;100.00;101183.50;5070640;28;20051;-50
2022/09/24 11:26:39;;;;;;;22.83;12.82;;;;;;;14.12;100.00;101189.50;5071620;28;20044;-55
2022/09/24 11:29:30;;;;;;;18.67;14.05;;;;;;;14.11;100.00;101187.88;5071751;28;20040;-50
2022/09/24 11:32:17;;;;;;;18.63;14.15;;;;;;;14.10;100.00;101194.47;5070868;28;20101;-54
2022/09/24 11:34:58;;;;;;;17.33;12.85;;;;;;;14.11;100.00;101190.63;5071971;28;20049;-51